Time;durP1;ratioP1;P1;durP2;ratioP2;P2;SDS_P1;SDS_P2;PMS_P1;PMS_P2;Temp;Humidity;BMP_temperature;BMP_pressure;BME280_temperature;BME280_humidity;BME280_pressure;Samples;Min_cycle;Max_cycle;Signal;HPM_P1;HPM_P2
2022/08/01 00:00:33;;;;;;;2.40;2.20;;;;;;;20.03;73.81;98674.53;5072995;28;20043;-82
2022/08/01 00:02:58;;;;;;;2.63;2.42;;;;;;;20.23;76.48;98713.84;5072769;28;20036;-82
2022/08/01 00:05:24;;;;;;;2.42;2.20;;;;;;;20.08;74.49;98681.72;5074216;28;20024;-82
2022/08/01 00:07:49;;;;;;;2.33;2.13;;;;;;;20.13;74.66;98681.59;5072869;28;20036;-82
2022/08/01 00:10:16;;;;;;;2.50;2.30;;;;;;;20.04;76.12;98707.84;5056090;28;20028;-81
2022/08/01 00:12:42;;;;;;;3.00;2.60;;;;;;;20.11;74.46;98681.91;5072863;28;20028;-82
2022/08/01 00:15:10;;;;;;;3.78;2.88;;;;;;;19.71;78.27;98701.97;5072308;28;20035;-81
2022/08/01 00:17:36;;;;;;;2.97;2.63;;;;;;;19.87;76.44;98694.25;5072901;28;20115;-81
2022/08/01 00:20:04;;;;;;;4.65;4.25;;;;;;;19.90;80.62;98709.84;5073003;28;20484;-81
2022/08/01 00:22:31;;;;;;;3.15;2.15;;;;;;;20.00;74.52;98677.09;5056256;28;20494;-82
2022/08/01 00:24:56;;;;;;;2.83;2.60;;;;;;;20.01;75.44;98709.28;5072448;28;20111;-82
2022/08/01 00:27:22;;;;;;;5.25;3.53;;;;;;;19.89;78.24;98700.94;5055833;28;20603;-81
2022/08/01 00:29:47;;;;;;;3.28;2.60;;;;;;;20.20;74.24;98700.91;5055825;28;20042;-82
2022/08/01 00:32:13;;;;;;;4.93;3.70;;;;;;;19.94;76.74;98705.44;5072571;28;20033;-81
2022/08/01 00:34:38;;;;;;;3.08;2.78;;;;;;;20.04;75.21;98699.72;5072776;28;20451;-82
2022/08/01 00:37:03;;;;;;;4.45;2.58;;;;;;;20.09;75.18;98696.88;5072766;28;20031;-82
2022/08/01 00:39:29;;;;;;;2.50;2.30;;;;;;;19.97;74.93;98672.28;5056818;28;20036;-82
2022/08/01 00:41:55;;;;;;;4.57;4.00;;;;;;;19.92;78.17;98686.00;5057399;28;20064;-82
2022/08/01 00:44:20;;;;;;;2.90;2.70;;;;;;;20.13;74.53;98684.31;5058096;28;20028;-82
2022/08/01 00:46:45;;;;;;;3.17;2.95;;;;;;;20.09;75.30;98700.38;5073560;28;20031;-81
2022/08/01 00:49:11;;;;;;;6.35;2.75;;;;;;;20.18;74.57;98681.44;5074937;28;20029;-82
2022/08/01 00:51:37;;;;;;;4.45;2.95;;;;;;;20.15;75.83;98701.03;5058314;28;20117;-82
2022/08/01 00:54:02;;;;;;;4.03;3.53;;;;;;;20.05;75.62;98679.66;5075381;28;20403;-82
2022/08/01 00:56:28;;;;;;;4.53;3.42;;;;;;;20.18;75.17;98687.66;5074734;28;20024;-81
2022/08/01 00:58:55;;;;;;;3.53;3.22;;;;;;;20.16;74.54;98686.38;5074669;28;20059;-81
2022/08/01 01:01:21;;;;;;;3.15;2.95;;;;;;;19.99;74.54;98664.63;5074013;28;20033;-81
2022/08/01 01:03:51;;;;;;;4.05;3.35;;;;;;;20.11;74.78;98681.91;5073939;28;20031;-82
2022/08/01 01:06:25;;;;;;;3.17;2.88;;;;;;;20.03;74.97;98679.16;5057602;28;20027;-82
2022/08/01 01:09:40;;;;;;;5.97;2.90;;;;;;;20.24;74.56;98682.13;5075726;28;20044;-82
2022/08/01 01:12:33;;;;;;;7.07;4.88;;;;;;;19.92;76.23;98677.84;5034815;28;20041;-82
2022/08/01 01:15:26;;;;;;;3.85;3.47;;;;;;;19.81;76.45;98671.91;5071668;28;20013;-82
2022/08/01 01:17:59;;;;;;;5.47;4.95;;;;;;;19.86;78.29;98662.84;5070164;28;20116;-82
2022/08/01 01:20:35;;;;;;;3.25;3.05;;;;;;;20.00;75.43;98671.66;5072291;28;20368;-81
2022/08/01 01:23:10;;;;;;;3.13;2.80;;;;;;;20.02;75.48;98674.84;5072020;28;20024;-82
2022/08/01 01:26:03;;;;;;;3.45;2.88;;;;;;;20.20;74.87;98679.22;5070607;28;20113;-82
2022/08/01 01:28:50;;;;;;;3.17;2.88;;;;;;;19.87;77.06;98673.38;5070322;28;20488;-81
2022/08/01 01:31:19;;;;;;;4.20;3.25;;;;;;;19.95;75.58;98653.63;5073771;28;20060;-82
2022/08/01 01:33:46;;;;;;;3.28;2.97;;;;;;;19.91;79.54;98662.72;5058174;28;20131;-82
2022/08/01 01:36:13;;;;;;;3.15;2.85;;;;;;;19.98;76.20;98673.91;5057657;28;20392;-82
2022/08/01 01:38:44;;;;;;;3.38;3.10;;;;;;;19.89;77.22;98675.78;5057519;28;20084;-81
2022/08/01 01:41:15;;;;;;;2.75;2.55;;;;;;;19.98;76.53;98677.41;5041181;28;20032;-82
2022/08/01 01:43:42;;;;;;;3.13;2.80;;;;;;;19.79;78.21;98679.53;5074295;28;20032;-81
2022/08/01 01:46:10;;;;;;;3.08;2.60;;;;;;;19.71;78.12;98679.50;5074277;28;20115;-81
2022/08/01 01:48:39;;;;;;;9.07;3.47;;;;;;;19.67;79.01;98667.69;5074015;28;20058;-81
2022/08/01 01:51:06;;;;;;;4.93;3.50;;;;;;;19.61;77.86;98656.22;5074239;28;20033;-81
2022/08/01 01:53:33;;;;;;;5.75;3.13;;;;;;;19.87;76.65;98676.09;5075453;28;20024;-82
2022/08/01 01:56:01;;;;;;;3.88;3.22;;;;;;;19.83;79.61;98679.72;5057441;28;20052;-81
2022/08/01 01:58:28;;;;;;;6.47;3.80;;;;;;;19.67;78.70;98679.34;5073736;28;20036;-81
2022/08/01 02:00:56;;;;;;;6.05;3.72;;;;;;;19.64;79.46;98668.31;5041090;28;20029;-81
2022/08/01 02:03:23;;;;;;;4.00;3.60;;;;;;;19.67;78.17;98673.94;5074530;28;20066;-81
2022/08/01 02:05:51;;;;;;;4.30;3.88;;;;;;;19.67;77.55;98676.63;5076316;28;20045;-81
2022/08/01 02:08:17;;;;;;;4.80;4.03;;;;;;;19.70;77.48;98664.38;5074601;28;20029;-81
2022/08/01 02:13:32;;;;;;;5.88;4.40;;;;;;;19.75;77.78;98675.88;5075068;28;20027;-81
2022/08/01 02:15:58;;;;;;;6.38;4.00;;;;;;;19.79;77.47;98674.13;5075874;28;20028;-82
2022/08/01 02:18:24;;;;;;;4.63;3.83;;;;;;;19.83;77.40;98682.44;5074471;28;20031;-81
2022/08/01 02:20:52;;;;;;;9.27;5.40;;;;;;;19.82;77.52;98668.09;5074323;28;20024;-82
2022/08/01 02:23:18;;;;;;;6.03;3.92;;;;;;;19.77;76.97;98673.63;5074619;28;20090;-81
2022/08/01 02:25:47;;;;;;;6.40;3.83;;;;;;;19.78;77.54;98679.84;5057549;28;20036;-82
2022/08/01 02:28:28;;;;;;;5.65;5.15;;;;;;;19.68;77.55;98680.16;5073709;28;20056;-81
2022/08/01 02:30:56;;;;;;;4.90;4.40;;;;;;;19.64;78.13;98676.44;5073726;28;20474;-82
2022/08/01 02:33:31;;;;;;;7.00;3.90;;;;;;;19.79;77.22;98676.06;5090613;28;20031;-81
2022/08/01 02:35:59;;;;;;;9.02;4.85;;;;;;;19.53;77.46;98645.34;5073987;28;20035;-81
2022/08/01 02:38:27;;;;;;;7.32;4.75;;;;;;;19.82;77.01;98678.13;5074785;28;20054;-81
2022/08/01 02:40:57;;;;;;;7.05;4.75;;;;;;;19.69;77.31;98670.91;5073502;28;20074;-81
2022/08/01 02:43:26;;;;;;;6.22;5.63;;;;;;;19.43;79.51;98690.53;5072700;28;20447;-82
2022/08/01 02:45:54;;;;;;;6.05;4.72;;;;;;;19.69;77.42;98692.56;5058413;28;20124;-81
2022/08/01 02:48:21;;;;;;;5.22;4.78;;;;;;;19.76;76.79;98684.78;5078683;28;20021;-82
2022/08/01 02:50:49;;;;;;;6.25;4.50;;;;;;;19.58;77.89;98678.50;5078734;28;20058;-82
2022/08/01 02:53:17;;;;;;;6.35;4.80;;;;;;;19.62;77.37;98657.00;5076067;28;20067;-81
2022/08/01 02:55:47;;;;;;;5.53;4.47;;;;;;;19.78;77.50;98690.69;5073128;28;20124;-82
2022/08/01 02:58:15;;;;;;;6.72;6.13;;;;;;;19.64;77.59;98679.16;5073239;28;20063;-82
2022/08/01 03:00:43;;;;;;;5.40;4.68;;;;;;;19.58;78.11;98685.81;5074266;28;20044;-81
2022/08/01 03:03:10;;;;;;;5.40;4.90;;;;;;;19.53;78.38;98675.91;5074415;28;20035;-82
2022/08/01 03:05:39;;;;;;;6.50;5.47;;;;;;;19.61;77.96;98677.06;5073694;28;20032;-82
2022/08/01 03:08:07;;;;;;;7.95;5.35;;;;;;;19.51;78.84;98688.16;5089664;28;20027;-82
2022/08/01 03:10:35;;;;;;;9.30;5.68;;;;;;;19.55;77.86;98668.28;5055407;28;20036;-82
2022/08/01 03:13:03;;;;;;;7.78;5.47;;;;;;;19.61;78.00;98674.38;5072373;28;20063;-81
2022/08/01 03:15:32;;;;;;;6.40;5.30;;;;;;;19.58;78.03;98697.44;5072312;28;20020;-81
2022/08/01 03:18:00;;;;;;;8.23;5.47;;;;;;;19.52;78.77;98674.31;5071486;28;20039;-81
2022/08/01 03:20:29;;;;;;;6.45;5.85;;;;;;;19.61;78.71;98693.31;5072800;28;20163;-81
2022/08/01 03:22:57;;;;;;;6.45;5.93;;;;;;;19.60;78.67;98689.81;5071529;28;20056;-83
2022/08/01 03:25:25;;;;;;;12.23;6.22;;;;;;;19.17;82.41;98705.75;5055017;28;20111;-82
2022/08/01 03:27:55;;;;;;;5.70;5.20;;;;;;;19.33;79.86;98689.97;5071186;28;20032;-82
2022/08/01 03:30:26;;;;;;;5.30;4.47;;;;;;;19.42;78.95;98698.94;5088343;28;20110;-82
2022/08/01 03:32:52;;;;;;;6.43;3.90;;;;;;;19.38;79.53;98692.53;5071685;28;20032;-82
2022/08/01 03:35:18;;;;;;;3.70;3.40;;;;;;;19.21;80.30;98676.16;5088276;28;20021;-82
2022/08/01 03:37:50;;;;;;;4.15;3.63;;;;;;;19.03;81.63;98686.06;5072278;28;20120;-82
2022/08/01 03:40:39;;;;;;;5.00;3.58;;;;;;;19.18;80.94;98701.94;5054346;28;20025;-82
2022/08/01 03:43:20;;;;;;;3.65;3.35;;;;;;;19.08;80.73;98687.84;5055302;28;20035;-81
2022/08/01 03:45:53;;;;;;;4.10;3.35;;;;;;;19.06;80.57;98680.06;5054942;28;20028;-82
2022/08/01 03:48:22;;;;;;;4.80;3.40;;;;;;;19.24;80.60;98703.41;5054914;28;20021;-82
2022/08/01 03:50:51;;;;;;;3.80;3.38;;;;;;;19.23;80.20;98699.13;5071527;28;20707;-81
2022/08/01 03:53:22;;;;;;;3.88;3.35;;;;;;;19.12;80.75;98696.94;5071415;28;20031;-81
2022/08/01 03:55:49;;;;;;;5.13;3.13;;;;;;;19.06;80.50;98709.81;5072751;28;20027;-82
2022/08/01 03:58:15;;;;;;;5.13;3.33;;;;;;;19.19;79.59;98687.31;5071098;28;20446;-82
2022/08/01 04:00:41;;;;;;;3.75;3.33;;;;;;;19.19;80.21;98708.16;5054605;28;20032;-82
2022/08/01 04:03:08;;;;;;;3.83;3.50;;;;;;;19.16;79.79;98695.22;5054454;28;20059;-82
2022/08/01 04:05:35;;;;;;;4.68;3.63;;;;;;;19.04;81.18;98693.09;5071293;28;20039;-82
2022/08/01 04:08:02;;;;;;;5.50;3.08;;;;;;;18.77;82.44;98716.72;5054677;28;20020;-82
2022/08/01 04:10:27;;;;;;;3.35;3.05;;;;;;;18.64;81.48;98675.91;5071350;28;20052;-81
2022/08/01 04:12:52;;;;;;;3.85;3.30;;;;;;;18.86;81.91;98723.00;5071283;28;20087;-81
2022/08/01 04:15:20;;;;;;;5.22;4.10;;;;;;;18.98;81.66;98723.28;5072318;28;20028;-81
2022/08/01 04:17:46;;;;;;;3.88;2.97;;;;;;;18.69;82.35;98726.34;5054625;28;20093;-82
2022/08/01 04:20:12;;;;;;;4.72;3.42;;;;;;;18.73;82.10;98708.41;5072417;28;20024;-81
2022/08/01 04:22:38;;;;;;;6.40;5.28;;;;;;;18.85;82.72;98722.19;5054282;28;20392;-82
2022/08/01 04:25:10;;;;;;;6.63;4.97;;;;;;;18.58;84.39;98716.88;5071134;28;20044;-81
2022/08/01 04:27:40;;;;;;;6.53;5.05;;;;;;;18.56;84.56;98711.78;5071146;28;20021;-81
2022/08/01 04:30:06;;;;;;;5.40;3.78;;;;;;;18.71;81.27;98718.75;5072361;28;20082;-81
2022/08/01 04:32:35;;;;;;;8.05;5.22;;;;;;;18.77;83.58;98714.00;5071070;28;20028;-81
2022/08/01 04:35:04;;;;;;;3.88;3.58;;;;;;;19.04;80.04;98747.19;5054643;28;20602;-82
2022/08/01 04:37:30;;;;;;;5.20;4.22;;;;;;;18.82;82.25;98749.88;5070721;28;20028;-81
2022/08/01 04:39:59;;;;;;;4.03;3.67;;;;;;;18.82;79.93;98716.59;5070718;28;20031;-82
2022/08/01 04:42:24;;;;;;;6.03;4.15;;;;;;;19.12;80.93;98754.59;5071003;28;20481;-82
2022/08/01 04:44:50;;;;;;;4.25;3.55;;;;;;;19.24;78.93;98767.56;5054440;28;20029;-82
2022/08/01 04:47:16;;;;;;;7.60;4.60;;;;;;;18.92;82.42;98754.22;5070915;28;20379;-82
2022/08/01 04:49:43;;;;;;;4.63;4.22;;;;;;;18.94;80.73;98742.00;5071012;28;20028;-82
2022/08/01 04:52:08;;;;;;;4.97;3.58;;;;;;;19.03;81.01;98766.44;5070832;28;20059;-82
2022/08/01 04:54:37;;;;;;;8.50;5.25;;;;;;;18.74;83.99;98763.31;5071230;28;20107;-81
2022/08/01 04:57:06;;;;;;;4.30;3.30;;;;;;;19.16;79.97;98774.50;5072164;28;20120;-82
2022/08/01 04:59:40;;;;;;;5.25;4.30;;;;;;;18.63;84.29;98777.03;5072128;28;20035;-81
2022/08/01 05:02:15;;;;;;;5.40;3.88;;;;;;;18.78;82.32;98773.22;5071281;28;20593;-81
2022/08/01 05:04:42;;;;;;;5.07;3.53;;;;;;;18.75;81.24;98737.84;5071108;28;20017;-82
2022/08/01 05:07:08;;;;;;;3.95;3.55;;;;;;;18.77;82.27;98774.31;5074516;28;20028;-81
2022/08/01 05:09:35;;;;;;;6.13;4.68;;;;;;;18.59;84.36;98777.94;5076091;28;20024;-82
2022/08/01 05:12:03;;;;;;;4.20;3.58;;;;;;;18.69;82.05;98766.91;5058301;28;20024;-81
2022/08/01 05:14:31;;;;;;;4.40;3.58;;;;;;;18.74;81.81;98774.91;5074678;28;20028;-81
2022/08/01 05:17:02;;;;;;;3.50;3.10;;;;;;;18.83;81.35;98783.13;5075403;28;20074;-81
2022/08/01 05:19:31;;;;;;;3.33;2.50;;;;;;;18.54;83.29;98776.13;5075401;28;20024;-81
2022/08/01 05:21:57;;;;;;;3.72;3.42;;;;;;;18.53;81.76;98741.28;5074466;28;20016;-81
2022/08/01 05:24:22;;;;;;;3.60;2.92;;;;;;;18.87;81.19;98776.78;5074761;28;20029;-81
2022/08/01 05:26:48;;;;;;;2.72;2.38;;;;;;;18.48;84.15;98771.13;5075434;28;20021;-81
2022/08/01 05:29:15;;;;;;;2.63;2.42;;;;;;;18.78;81.57;98769.69;5074099;28;20593;-81
2022/08/01 05:31:40;;;;;;;2.78;2.58;;;;;;;18.67;81.11;98769.13;5074285;28;20028;-82
2022/08/01 05:34:06;;;;;;;4.38;2.67;;;;;;;18.66;79.55;98730.47;5057842;28;20396;-81
2022/08/01 05:36:31;;;;;;;3.45;3.05;;;;;;;18.84;81.72;98785.53;5075228;28;20032;-81
2022/08/01 05:38:57;;;;;;;6.25;3.25;;;;;;;18.54;84.46;98786.16;5074294;28;20492;-81
2022/08/01 05:41:22;;;;;;;3.53;3.20;;;;;;;18.59;83.65;98754.41;5057717;28;20189;-81
2022/08/01 05:43:47;;;;;;;4.72;3.00;;;;;;;19.04;80.00;98787.78;5074662;28;20471;-81
2022/08/01 05:46:13;;;;;;;3.28;2.00;;;;;;;18.57;82.31;98750.41;5075549;28;20033;-81
2022/08/01 05:48:38;;;;;;;4.55;2.22;;;;;;;18.85;80.91;98776.28;5057374;28;20033;-82
2022/08/01 05:51:05;;;;;;;3.92;2.63;;;;;;;18.89;81.56;98779.19;5073982;28;20495;-81
2022/08/01 05:53:34;;;;;;;2.30;2.10;;;;;;;18.85;82.22;98794.44;5074212;28;20024;-81
2022/08/01 05:55:59;;;;;;;3.92;2.67;;;;;;;18.94;81.16;98781.78;5074013;28;20081;-81
2022/08/01 05:58:25;;;;;;;2.50;2.17;;;;;;;19.24;78.87;98800.84;5057109;28;20421;-81
2022/08/01 06:00:50;;;;;;;3.47;2.63;;;;;;;18.96;81.92;98793.91;5074012;28;20024;-82
2022/08/01 06:03:16;;;;;;;3.95;2.70;;;;;;;18.89;82.69;98809.75;5075294;28;20021;-82
2022/08/01 06:05:41;;;;;;;3.22;2.80;;;;;;;18.77;81.71;98787.81;5074059;28;20033;-81
2022/08/01 06:08:07;;;;;;;1.85;1.75;;;;;;;19.11;79.39;98795.47;5056858;28;20472;-82
2022/08/01 06:10:32;;;;;;;2.42;2.00;;;;;;;18.82;81.98;98806.66;5073592;28;20032;-81
2022/08/01 06:12:58;;;;;;;2.40;2.20;;;;;;;19.39;78.58;98805.94;5057068;28;20043;-81
2022/08/01 06:15:23;;;;;;;2.92;2.35;;;;;;;18.86;82.84;98813.06;5073942;28;20460;-81
2022/08/01 06:17:49;;;;;;;5.85;2.08;;;;;;;19.04;80.61;98804.00;5056396;28;20044;-81
2022/08/01 06:20:14;;;;;;;2.42;2.22;;;;;;;18.79;83.20;98809.97;5056755;28;20029;-81
2022/08/01 06:22:39;;;;;;;2.00;1.90;;;;;;;18.95;81.50;98803.13;5056724;28;20025;-82
2022/08/01 06:25:06;;;;;;;2.53;2.30;;;;;;;19.08;80.79;98817.72;5073451;28;20105;-82
2022/08/01 06:27:34;;;;;;;3.97;2.08;;;;;;;19.21;79.69;98806.88;5073523;28;20028;-81
2022/08/01 06:29:59;;;;;;;2.60;2.40;;;;;;;19.24;81.33;98825.19;5056949;28;20395;-81
2022/08/01 06:32:26;;;;;;;1.90;1.80;;;;;;;19.33;80.56;98828.00;5073340;28;20123;-82
2022/08/01 06:34:51;;;;;;;3.05;1.90;;;;;;;18.91;83.37;98826.47;5056754;28;20033;-82
2022/08/01 06:37:17;;;;;;;2.35;2.15;;;;;;;19.01;82.82;98815.44;5072880;28;20041;-81
2022/08/01 06:39:42;;;;;;;2.50;2.30;;;;;;;19.47;81.01;98833.38;5056530;28;20043;-81
2022/08/01 06:42:09;;;;;;;2.72;2.10;;;;;;;19.22;80.94;98826.63;5056407;28;20074;-82
2022/08/01 06:44:34;;;;;;;1.90;1.77;;;;;;;18.95;85.96;98819.38;5073641;28;20077;-81
2022/08/01 06:47:00;;;;;;;2.30;2.05;;;;;;;19.14;81.81;98827.31;5074437;28;20024;-81
2022/08/01 06:49:25;;;;;;;2.00;1.90;;;;;;;19.37;80.95;98829.00;5056744;28;20118;-82
2022/08/01 06:51:51;;;;;;;2.65;1.80;;;;;;;19.81;77.78;98829.00;5056273;28;20085;-82
2022/08/01 06:54:16;;;;;;;2.05;1.80;;;;;;;19.95;77.64;98843.28;5073034;28;20542;-81
2022/08/01 06:56:42;;;;;;;2.00;1.80;;;;;;;19.64;81.70;98844.34;5055973;28;20048;-81
2022/08/01 06:59:07;;;;;;;2.88;1.80;;;;;;;19.58;79.72;98843.66;5072841;28;20043;-82
2022/08/01 07:01:33;;;;;;;2.95;1.58;;;;;;;19.34;82.67;98833.13;5072864;28;20468;-81
2022/08/01 07:03:58;;;;;;;1.77;1.67;;;;;;;19.27;80.59;98811.06;5072983;28;20491;-81
2022/08/01 07:06:25;;;;;;;1.88;1.77;;;;;;;19.65;81.73;98843.25;5056006;28;20040;-82
2022/08/01 07:08:51;;;;;;;4.00;2.28;;;;;;;19.75;81.17;98846.50;5074008;28;20777;-81
2022/08/01 07:11:21;;;;;;;4.20;1.98;;;;;;;19.76;77.73;98818.31;5074308;28;20115;-81
2022/08/01 07:13:47;;;;;;;1.65;1.55;;;;;;;19.87;78.98;98848.66;5072807;28;20025;-82
2022/08/01 07:16:14;;;;;;;1.88;1.77;;;;;;;19.45;81.59;98825.56;5055945;28;20032;-82
2022/08/01 07:18:40;;;;;;;4.53;2.58;;;;;;;19.49;82.00;98852.81;5073615;28;20021;-81
2022/08/01 07:21:06;;;;;;;1.70;1.50;;;;;;;20.15;76.72;98841.97;5072676;28;20028;-81
2022/08/01 07:23:31;;;;;;;3.95;1.67;;;;;;;19.53;79.97;98829.47;5055919;28;20047;-81
2022/08/01 07:25:57;;;;;;;1.80;1.70;;;;;;;20.18;76.86;98838.66;5055786;28;20357;-81
2022/08/01 07:28:23;;;;;;;1.58;1.48;;;;;;;19.94;78.35;98840.91;5055096;28;20047;-81
2022/08/01 07:30:48;;;;;;;2.67;2.42;;;;;;;19.89;82.68;98841.03;5072407;28;20035;-82
2022/08/01 07:33:13;;;;;;;3.70;2.78;;;;;;;19.72;82.28;98830.06;5072085;28;20029;-82
2022/08/01 07:35:39;;;;;;;4.38;2.50;;;;;;;19.43;82.47;98849.44;5072230;28;20035;-81
2022/08/01 07:38:06;;;;;;;3.90;2.05;;;;;;;19.56;82.29;98847.78;5071323;28;20028;-82
2022/08/01 07:40:31;;;;;;;4.90;2.17;;;;;;;19.94;79.02;98824.66;5055417;28;20043;-82
2022/08/01 07:42:57;;;;;;;2.13;1.92;;;;;;;20.21;77.13;98840.75;5073024;28;20024;-82
2022/08/01 07:45:22;;;;;;;2.83;2.40;;;;;;;20.54;78.10;98844.75;5055047;28;20032;-82
2022/08/01 07:47:49;;;;;;;2.55;2.10;;;;;;;20.14;79.33;98852.00;5054809;28;20032;-81
2022/08/01 07:50:15;;;;;;;2.22;1.77;;;;;;;20.31;76.46;98848.63;5072767;28;20050;-81
2022/08/01 07:52:42;;;;;;;1.67;1.50;;;;;;;20.54;74.85;98855.59;5072040;28;20040;-81
2022/08/01 07:55:09;;;;;;;3.53;2.88;;;;;;;20.31;77.53;98855.97;5055213;28;20039;-81
2022/08/01 07:57:34;;;;;;;3.28;2.28;;;;;;;20.37;77.26;98860.13;5072572;28;20025;-81
2022/08/01 08:00:00;;;;;;;1.60;1.50;;;;;;;20.08;75.59;98790.94;5072712;28;20043;-81
2022/08/01 08:02:26;;;;;;;1.85;1.70;;;;;;;20.53;75.70;98847.78;5071939;28;20507;-82
2022/08/01 08:04:51;;;;;;;2.00;1.90;;;;;;;20.67;75.30;98859.31;5055175;28;20032;-81
2022/08/01 08:07:17;;;;;;;1.98;1.83;;;;;;;20.67;75.15;98843.03;5072689;28;20036;-81
2022/08/01 08:09:42;;;;;;;2.13;1.92;;;;;;;20.47;76.48;98849.81;5071485;28;20035;-81
2022/08/01 08:12:08;;;;;;;2.55;1.60;;;;;;;20.55;75.64;98835.47;5071339;28;20401;-82
2022/08/01 08:14:33;;;;;;;2.00;1.80;;;;;;;20.63;75.33;98837.44;5071407;28;20498;-82
2022/08/01 08:16:59;;;;;;;2.13;1.98;;;;;;;20.62;75.27;98829.63;5072315;28;20029;-82
2022/08/01 08:19:24;;;;;;;1.73;1.60;;;;;;;20.75;75.26;98867.47;5071412;28;20073;-81
2022/08/01 08:21:50;;;;;;;1.83;1.73;;;;;;;20.70;75.10;98855.97;5071217;28;20123;-82
2022/08/01 08:24:22;;;;;;;2.25;1.92;;;;;;;20.64;75.30;98854.53;5072520;28;20430;-81
2022/08/01 08:26:49;;;;;;;2.15;1.73;;;;;;;20.45;76.64;98846.63;5056304;28;20020;-81
2022/08/01 08:29:15;;;;;;;1.80;1.58;;;;;;;20.59;75.85;98847.31;5071290;28;20430;-82
2022/08/01 08:31:40;;;;;;;3.70;1.95;;;;;;;20.49;75.94;98855.72;5072426;28;20086;-81
2022/08/01 08:34:06;;;;;;;2.13;1.40;;;;;;;20.67;75.31;98865.53;5054473;28;20020;-81
2022/08/01 08:36:31;;;;;;;1.98;1.80;;;;;;;20.63;75.38;98872.69;5070701;28;20035;-82
2022/08/01 08:39:01;;;;;;;3.38;1.95;;;;;;;20.56;78.14;98864.22;5070813;28;20112;-82
2022/08/01 08:41:28;;;;;;;2.80;1.60;;;;;;;20.63;75.95;98861.84;5075495;28;20055;-81
2022/08/01 08:43:56;;;;;;;3.75;1.90;;;;;;;20.76;75.56;98868.28;5075552;28;20072;-81
2022/08/01 08:46:23;;;;;;;2.10;2.00;;;;;;;20.53;75.31;98832.28;5075238;28;20447;-81
2022/08/01 08:48:49;;;;;;;1.75;1.65;;;;;;;20.76;76.29;98879.94;5058112;28;20089;-81
2022/08/01 08:51:17;;;;;;;2.28;1.80;;;;;;;20.76;76.18;98877.22;5074939;28;20491;-82
2022/08/01 08:53:45;;;;;;;1.58;1.48;;;;;;;20.75;76.80;98875.59;5074713;28;20108;-81
2022/08/01 08:56:15;;;;;;;2.40;2.05;;;;;;;20.86;76.21;98890.50;5075949;28;20040;-82
2022/08/01 08:58:43;;;;;;;6.90;2.15;;;;;;;20.82;77.00;98880.56;5058447;28;20070;-81
2022/08/01 09:01:09;;;;;;;1.65;1.55;;;;;;;20.74;77.42;98875.94;5076238;28;20028;-81
2022/08/01 09:03:36;;;;;;;2.30;2.10;;;;;;;20.68;79.07;98885.31;5058267;28;20040;-81
2022/08/01 09:06:02;;;;;;;1.70;1.60;;;;;;;20.89;76.74;98873.59;5074575;28;20472;-81
2022/08/01 09:08:28;;;;;;;3.40;1.90;;;;;;;21.08;77.11;98900.47;5075515;28;20150;-82
2022/08/01 09:10:53;;;;;;;1.70;1.60;;;;;;;21.18;75.38;98891.25;5074401;28;20552;-82
2022/08/01 09:13:18;;;;;;;2.05;1.70;;;;;;;21.17;74.95;98882.31;5074575;28;20033;-81
2022/08/01 09:15:53;;;;;;;1.70;1.60;;;;;;;21.15;75.01;98886.44;5057648;28;20051;-82
2022/08/01 09:18:43;;;;;;;1.98;1.67;;;;;;;21.18;75.47;98904.81;5074217;28;20028;-81
2022/08/01 09:21:09;;;;;;;1.60;1.50;;;;;;;21.18;75.85;98902.13;5074303;28;20547;-81
2022/08/01 09:23:53;;;;;;;1.40;1.30;;;;;;;21.19;75.52;98898.25;5073988;28;20499;-81
2022/08/01 09:26:32;;;;;;;1.80;1.70;;;;;;;21.17;76.91;98911.34;5058503;28;20081;-81
2022/08/01 09:28:59;;;;;;;1.52;1.42;;;;;;;20.51;80.30;98915.88;5074262;28;20032;-81
2022/08/01 09:31:26;;;;;;;1.67;1.58;;;;;;;20.59;79.28;98912.41;5073762;28;20181;-81
2022/08/01 09:33:57;;;;;;;1.92;1.83;;;;;;;20.77;78.08;98902.44;5075838;28;20046;-82
2022/08/01 09:36:42;;;;;;;3.00;1.38;;;;;;;20.76;79.06;98906.25;5074490;28;20031;-82
2022/08/01 09:39:19;;;;;;;2.42;1.50;;;;;;;20.93;76.43;98912.53;5074086;28;20373;-82
2022/08/01 09:41:45;;;;;;;1.55;1.45;;;;;;;20.81;78.05;98916.97;5075064;28;20082;-82
2022/08/01 09:44:10;;;;;;;2.47;1.55;;;;;;;20.43;78.12;98880.56;5073631;28;20474;-82
2022/08/01 09:46:36;;;;;;;1.77;1.48;;;;;;;20.93;77.13;98911.75;5057287;28;20488;-82
2022/08/01 09:49:04;;;;;;;1.63;1.52;;;;;;;20.99;77.01;98915.13;5073709;28;20066;-81
2022/08/01 09:51:29;;;;;;;2.25;1.25;;;;;;;20.96;77.38;98915.75;5056508;28;20025;-81
2022/08/01 09:53:55;;;;;;;1.10;0.98;;;;;;;20.77;77.94;98924.16;5073611;28;20111;-82
2022/08/01 09:56:22;;;;;;;3.83;1.58;;;;;;;20.79;76.75;98903.69;5073323;28;20674;-81
2022/08/01 09:58:58;;;;;;;1.30;1.17;;;;;;;20.70;77.77;98919.16;5073193;28;20023;-82
2022/08/01 10:01:24;;;;;;;3.30;1.30;;;;;;;20.67;77.36;98891.84;5074716;28;20032;-81
2022/08/01 10:04:10;;;;;;;1.50;1.10;;;;;;;21.03;77.51;98918.81;5073423;28;20033;-82
2022/08/01 10:06:36;;;;;;;1.77;1.00;;;;;;;20.79;77.22;98919.22;5056318;28;20036;-81
2022/08/01 10:09:08;;;;;;;0.90;0.90;;;;;;;21.11;77.70;98909.91;5074477;28;20028;-81
2022/08/01 10:11:38;;;;;;;4.10;0.88;;;;;;;21.10;77.46;98900.19;5073260;28;20032;-81
2022/08/01 10:14:04;;;;;;;1.00;1.00;;;;;;;21.65;75.49;98912.06;5074568;28;20036;-81
2022/08/01 10:16:33;;;;;;;1.90;1.20;;;;;;;21.77;74.56;98897.84;5072763;28;20025;-82
2022/08/01 10:19:00;;;;;;;4.38;1.35;;;;;;;21.44;75.87;98884.75;5056320;28;20035;-82
2022/08/01 10:21:27;;;;;;;1.45;0.95;;;;;;;21.93;75.07;98891.63;5072966;28;20550;-82
2022/08/01 10:23:55;;;;;;;1.27;0.60;;;;;;;21.69;74.97;98912.25;5056099;28;20055;-82
2022/08/01 10:26:24;;;;;;;0.90;0.88;;;;;;;22.11;72.66;98906.81;5074008;28;20468;-82
2022/08/01 10:28:51;;;;;;;0.65;0.65;;;;;;;22.32;72.58;98918.59;5039597;28;20051;-82
2022/08/01 10:31:17;;;;;;;0.60;0.60;;;;;;;21.86;71.43;98904.13;5055763;28;20029;-82
2022/08/01 10:33:44;;;;;;;1.40;0.90;;;;;;;22.05;72.93;98891.78;5072633;28;20031;-82
2022/08/01 10:36:10;;;;;;;1.13;1.00;;;;;;;22.46;72.17;98899.38;5072618;28;20114;-82
2022/08/01 10:38:36;;;;;;;0.55;0.55;;;;;;;22.82;71.26;98896.25;5072055;28;20531;-81
2022/08/01 10:41:03;;;;;;;0.60;0.60;;;;;;;23.11;69.63;98898.97;5072547;28;20024;-82
2022/08/01 10:43:29;;;;;;;2.20;0.98;;;;;;;23.00;69.84;98903.97;5073574;28;20036;-81
2022/08/01 10:45:55;;;;;;;4.10;1.50;;;;;;;23.13;68.97;98892.06;5072404;28;20111;-82
2022/08/01 10:48:30;;;;;;;1.02;1.00;;;;;;;23.00;68.57;98889.56;5055590;28;20032;-82
2022/08/01 10:51:00;;;;;;;0.90;0.90;;;;;;;23.30;68.34;98890.38;5073860;28;20028;-82
2022/08/01 10:53:27;;;;;;;0.95;0.95;;;;;;;23.01;68.88;98883.81;5072287;28;20039;-82
2022/08/01 10:55:55;;;;;;;1.63;0.73;;;;;;;22.58;68.81;98904.94;5055373;28;20040;-82
2022/08/01 10:58:38;;;;;;;1.35;1.10;;;;;;;23.22;68.52;98893.94;5071798;28;20028;-82
2022/08/01 11:01:22;;;;;;;2.05;1.10;;;;;;;22.72;69.74;98907.47;5072122;28;20130;-82
2022/08/01 11:04:26;;;;;;;3.03;0.70;;;;;;;23.09;68.65;98893.03;5071056;28;20025;-82
2022/08/01 11:06:54;;;;;;;0.73;0.73;;;;;;;23.15;68.81;98899.91;5071186;28;20032;-82
2022/08/01 11:09:41;;;;;;;0.73;0.73;;;;;;;23.14;68.55;98909.22;5071975;28;20030;-82
2022/08/01 11:12:11;;;;;;;1.13;1.13;;;;;;;23.04;68.62;98909.59;5073335;28;20028;-82
2022/08/01 11:14:58;;;;;;;0.80;0.73;;;;;;;23.09;67.74;98912.09;5072085;28;20050;-82
2022/08/01 11:17:34;;;;;;;3.97;0.60;;;;;;;22.94;68.23;98920.84;5071270;28;20050;-82
2022/08/01 11:20:07;;;;;;;0.98;0.90;;;;;;;22.59;69.39;98917.44;5071717;28;20115;-82
2022/08/01 11:23:01;;;;;;;0.60;0.60;;;;;;;22.69;69.17;98897.25;5073030;28;20476;-82
2022/08/01 11:25:35;;;;;;;1.10;1.08;;;;;;;21.94;70.80;98928.59;5071566;28;20029;-82
2022/08/01 11:28:16;;;;;;;1.17;0.98;;;;;;;21.80;72.47;98927.13;5073115;28;20032;-82
2022/08/01 11:30:46;;;;;;;0.63;0.63;;;;;;;22.22;71.02;98932.56;5073628;28;20167;-82
2022/08/01 11:33:13;;;;;;;1.13;1.10;;;;;;;21.75;73.12;98938.94;5089083;28;20020;-82
2022/08/01 11:36:12;;;;;;;1.25;1.15;;;;;;;21.71;72.36;98934.47;5055549;28;20025;-82
2022/08/01 11:38:43;;;;;;;1.92;1.10;;;;;;;21.73;71.69;98927.59;5070964;28;20040;-83
2022/08/01 11:41:19;;;;;;;1.00;1.00;;;;;;;21.74;71.80;98944.69;5071542;28;20024;-83
2022/08/01 11:44:09;;;;;;;1.20;1.15;;;;;;;21.28;74.54;98927.03;5072374;28;20028;-82